Meteo Giornale » Osservazioni meteo Stati Uniti (USA) » Shreveport
ore: 23:56 - Osservazioni Meteo Shreveport
Lat. 32° 26' N Lon. 93° 49' W Alt. 78 metri s.l.m.
28 °C
Poco Nuvoloso
Temp. 24 Ore
23 °C
36 °C
Sud-Est
9.3 Km/h
Dew point 22 °C
Umidità 69 %
Visibilità 10 Km
Il sole sorge alle ore 06:50
Il sole tramonta alle ore 19:39
| Data e Ora | Cielo e Fenomeni | T °C | DP °C | Um. % | Pres. hPa | Vis. km | Vento km/h | |
|---|---|---|---|---|---|---|---|---|
| Ieri h: 23:56 | Poco Nuvoloso | 28 | 22 | 69 | 1015 | 10 | SE 9.3 | |
| Ieri h: 22:56 | Poco Nuvoloso | 28 | 22 | 69 | 1015 | 10 | N 5.5 | |
| Ieri h: 21:56 | Poco Nuvoloso | 29 | 21 | 62 | 1015 | 10 | N 5.5 | |
| Ieri h: 20:56 | Poco Nuvoloso | 30 | 21 | 58 | 1015 | 10 | E/SE 7.4 | |
| Ieri h: 19:56 | Nuvoloso | 32 | 21 | 52 | 1015 | 10 | SE 11.1 | |
| Ieri h: 18:56 | Poco Nuvoloso | 34 | 20 | 43 | 1014 | 10 | SE 13 | |
| Ieri h: 17:56 | Poco Nuvoloso | 35 | 21 | 44 | 1014 | 10 | E/SE 18.5 | |
| Ieri h: 16:56 | Poco Nuvoloso | 36 | 21 | 41 | 1015 | 10 | E/SE 16.7 | |
| Ieri h: 15:56 | Nuvoloso | 36 | 21 | 41 | 1015 | 10 | E/SE 16.7 | |
| Ieri h: 14:56 | Nuvoloso | 36 | 22 | 44 | 1016 | 10 | SE 11.1 | |
| Ieri h: 13:56 | Nuvoloso | 35 | 21 | 44 | 1016 | 10 | SE 9.3 | |
| Ieri h: 12:56 | Poco Nuvoloso | 35 | 22 | 47 | 1017 | 10 | SE 14.8 | |
| Ieri h: 11:56 | Poco Nuvoloso | 34 | 21 | 46 | 1018 | 10 | NE 9.3 | |
| Ieri h: 10:56 | Poco Nuvoloso | 32 | 22 | 55 | 1018 | 10 | N/NO 7.4 | |
| Ieri h: 09:56 | Poco Nuvoloso | 30 | 22 | 62 | 1018 | 10 | N 0 | |
| Ieri h: 08:56 | Poco Nuvoloso | 28 | 22 | 69 | 1018 | 10 | N 5.5 | |
| Ieri h: 07:56 | Poco Nuvoloso | 25 | 22 | 83 | 1017 | 10 | SE 7.4 | |
| Ieri h: 06:56 | Sereno | 23 | 21 | 88 | 1016 | 10 | N 0 | |
| Ieri h: 05:56 | Sereno | 24 | 21 | 83 | 1016 | 10 | N 0 | |
| Ieri h: 04:56 | Poco Nuvoloso | 24 | 22 | 88 | 1016 | 10 | N 5.5 | |
| Ieri h: 03:56 | Poco Nuvoloso | 26 | 21 | 73 | 1015 | 10 | S 9.3 | |
| Ieri h: 02:56 | Poco Nuvoloso | 26 | 21 | 73 | 1016 | 10 | S/SE 7.4 | |
| Ieri h: 01:56 | Nuvoloso | 27 | 20 | 65 | 1016 | 10 | S/SE 14.8 | |
| Ieri h: 00:56 | Sereno | 28 | 20 | 61 | 1016 | 10 | SE 11.1 | |



